createdAt,value
2023-05-25T00:02:07.483Z,97753.06
2023-05-25T00:04:37.138Z,97814.34
2023-05-25T00:07:05.985Z,97828.16
2023-05-25T00:09:36.687Z,97835.03
2023-05-25T00:12:06.223Z,97828.22
2023-05-25T00:14:34.749Z,97839.75
2023-05-25T00:17:04.428Z,97834.56
2023-05-25T00:19:34.297Z,97838.97
2023-05-25T00:22:03.530Z,97783.13
2023-05-25T00:24:32.660Z,97837.22
2023-05-25T00:27:02.668Z,97842.50
2023-05-25T00:29:31.137Z,97842.34
2023-05-25T00:31:59.489Z,97828.69
2023-05-25T00:34:27.884Z,97843.94
2023-05-25T00:36:56.473Z,97842.06
2023-05-25T00:39:24.760Z,97845.56
2023-05-25T00:41:53.132Z,97844.38
2023-05-25T00:44:22.911Z,97828.09
2023-05-25T00:46:53.050Z,97791.91
2023-05-25T00:49:23.941Z,97848.72
2023-05-25T00:51:54.102Z,97848.66
2023-05-25T00:54:22.828Z,97853.03
2023-05-25T00:56:54.386Z,97856.63
2023-05-25T00:59:31.113Z,97831.81
2023-05-25T01:02:04.960Z,97852.09
2023-05-25T01:04:36.156Z,97845.13
2023-05-25T01:07:06.500Z,97850.25
2023-05-25T01:09:36.404Z,97801.38
2023-05-25T01:12:05.220Z,97846.81
2023-05-25T01:14:36.485Z,97842.41
2023-05-25T01:17:05.040Z,97838.91
2023-05-25T01:19:37.538Z,97843.25
2023-05-25T01:22:13.612Z,97848.66
2023-05-25T01:24:46.133Z,97851.03
2023-05-25T01:27:18.476Z,97859.84
2023-05-25T01:29:48.334Z,97849.28
2023-05-25T01:32:19.458Z,97678.56
2023-05-25T01:34:49.956Z,97851.28
2023-05-25T01:37:23.570Z,97767.81
2023-05-25T01:39:51.967Z,97828.00
2023-05-25T01:42:20.498Z,97848.72
2023-05-25T01:44:49.242Z,97840.13
2023-05-25T01:47:23.456Z,97842.97
2023-05-25T01:49:59.592Z,97817.03
2023-05-25T01:52:33.874Z,97838.66
2023-05-25T01:55:06.923Z,97845.72
2023-05-25T01:57:39.055Z,97834.50
2023-05-25T02:00:11.055Z,97848.69
2023-05-25T02:02:42.486Z,97844.44
2023-05-25T02:05:11.611Z,97844.66
2023-05-25T02:07:41.752Z,97842.13
2023-05-25T02:10:10.981Z,97844.88
2023-05-25T02:12:39.450Z,97841.53
2023-05-25T02:15:08.877Z,97838.97
2023-05-25T02:17:37.475Z,97838.22
2023-05-25T02:20:07.048Z,97842.81
2023-05-25T02:22:37.625Z,97837.84
2023-05-25T02:25:09.327Z,97825.22
2023-05-25T02:27:37.762Z,97833.72
2023-05-25T02:30:07.352Z,97831.50
2023-05-25T02:32:36.151Z,97833.97
2023-05-25T02:35:04.601Z,97835.81
2023-05-25T02:37:32.918Z,97836.84
2023-05-25T02:40:01.365Z,97834.50
2023-05-25T02:42:31.023Z,97844.97
2023-05-25T02:44:59.483Z,97845.84
2023-05-25T02:47:27.901Z,97850.53
2023-05-25T02:49:56.376Z,97852.31
2023-05-25T02:52:25.872Z,97850.81
2023-05-25T02:54:54.232Z,97856.03
2023-05-25T02:57:23.270Z,97858.72
2023-05-25T02:59:53.006Z,97842.06
2023-05-25T03:02:25.686Z,97862.91
2023-05-25T03:04:55.014Z,97870.50
2023-05-25T03:07:25.650Z,97869.03
2023-05-25T03:09:54.296Z,97866.31
2023-05-25T03:12:22.676Z,97865.75
2023-05-25T03:14:52.496Z,97874.78
2023-05-25T03:17:20.851Z,97872.38
2023-05-25T03:19:49.369Z,97880.31
2023-05-25T03:22:17.690Z,97884.94
2023-05-25T03:24:46.829Z,97892.78
2023-05-25T03:27:15.142Z,97890.84
2023-05-25T03:29:43.509Z,97892.59
2023-05-25T03:32:13.494Z,97892.59
2023-05-25T03:34:42.890Z,97896.22
2023-05-25T03:37:11.252Z,97895.94
2023-05-25T03:39:39.580Z,97896.22
2023-05-25T03:42:08.542Z,97908.25
2023-05-25T03:44:37.534Z,97901.78
2023-05-25T03:47:07.389Z,97911.88
2023-05-25T03:49:37.141Z,97916.78
2023-05-25T03:52:06.412Z,97921.94
2023-05-25T03:54:34.925Z,97911.78
2023-05-25T03:57:03.952Z,97922.50
2023-05-25T03:59:32.710Z,97919.97
2023-05-25T04:02:00.931Z,97935.94
2023-05-25T04:04:30.140Z,97930.28
2023-05-25T04:06:59.916Z,97939.06
2023-05-25T04:09:28.286Z,97922.09
2023-05-25T04:11:56.572Z,97950.94
2023-05-25T04:14:24.835Z,97949.44
2023-05-25T04:16:53.660Z,97941.66
2023-05-25T04:19:21.960Z,97941.03
2023-05-25T04:21:50.231Z,97954.63
2023-05-25T04:24:19.976Z,97963.94
2023-05-25T04:26:48.460Z,97957.69
2023-05-25T04:29:16.783Z,97951.59
2023-05-25T04:31:46.023Z,97950.69
2023-05-25T04:34:15.412Z,97956.44
2023-05-25T04:36:45.013Z,97960.50
2023-05-25T04:39:13.395Z,97950.53
2023-05-25T04:41:43.291Z,97947.53
2023-05-25T04:44:11.676Z,97959.47
2023-05-25T04:46:40.877Z,97961.06
2023-05-25T04:49:10.163Z,97960.50
2023-05-25T04:51:38.673Z,97960.34
2023-05-25T04:54:07.506Z,97960.97
2023-05-25T04:56:35.841Z,97959.47
2023-05-25T04:59:06.535Z,97967.00
2023-05-25T05:01:40.965Z,97965.00
2023-05-25T05:04:09.863Z,97959.50
2023-05-25T05:06:38.269Z,97962.81
2023-05-25T05:09:06.705Z,97968.59
2023-05-25T05:11:35.119Z,97969.00
2023-05-25T05:14:03.477Z,97969.16
2023-05-25T05:16:35.333Z,97953.41
2023-05-25T05:19:04.190Z,97962.41
2023-05-25T05:21:32.709Z,97961.38
2023-05-25T05:24:01.231Z,97964.47
2023-05-25T05:26:30.622Z,97968.31
2023-05-25T05:28:59.974Z,97954.19
2023-05-25T05:31:29.597Z,97958.91
2023-05-25T05:33:59.649Z,97957.72
2023-05-25T05:36:29.968Z,97963.56
2023-05-25T05:38:58.260Z,97961.31
2023-05-25T05:41:27.631Z,97963.78
2023-05-25T05:43:56.757Z,97965.97
2023-05-25T05:46:25.094Z,97972.00
2023-05-25T05:48:53.516Z,97967.28
2023-05-25T05:51:23.277Z,97984.09
2023-05-25T05:53:51.810Z,97975.84
2023-05-25T05:56:20.758Z,97941.03
2023-05-25T05:58:50.081Z,97973.69
2023-05-25T06:01:18.512Z,97972.78
2023-05-25T06:03:47.706Z,97973.75
2023-05-25T06:06:16.672Z,97968.16
2023-05-25T06:08:47.507Z,97958.41
2023-05-25T06:11:15.989Z,97963.25
2023-05-25T06:13:45.488Z,97966.84
2023-05-25T06:16:15.051Z,97973.03
2023-05-25T06:18:43.448Z,97974.69
2023-05-25T06:21:12.869Z,97972.94
2023-05-25T06:23:41.500Z,97968.75
2023-05-25T06:26:11.284Z,97970.28
2023-05-25T06:28:39.592Z,97983.78
2023-05-25T06:31:07.968Z,97957.53
2023-05-25T06:33:36.369Z,97974.81
2023-05-25T06:36:05.054Z,97978.81
2023-05-25T06:38:33.456Z,97963.53
2023-05-25T06:41:03.744Z,97981.16
2023-05-25T06:43:33.638Z,97986.94
2023-05-25T06:46:02.316Z,97982.03
2023-05-25T06:48:30.866Z,97986.44
2023-05-25T06:50:59.295Z,97984.13
2023-05-25T06:53:27.716Z,97969.94
2023-05-25T06:55:56.147Z,97977.22
2023-05-25T06:58:24.641Z,97979.75
2023-05-25T07:00:54.546Z,97987.38
2023-05-25T07:03:22.992Z,97985.06
2023-05-25T07:05:51.446Z,97978.53
2023-05-25T07:08:19.785Z,97979.38
2023-05-25T07:10:50.186Z,97971.81
2023-05-25T07:13:18.893Z,97984.06
2023-05-25T07:15:47.580Z,97963.59
2023-05-25T07:18:17.744Z,97912.88
2023-05-25T07:20:46.722Z,97980.50
2023-05-25T07:23:15.102Z,97975.91
2023-05-25T07:25:43.667Z,97937.09
2023-05-25T07:28:12.330Z,97983.38
2023-05-25T07:30:42.034Z,97969.47
2023-05-25T07:33:10.520Z,97987.63
2023-05-25T07:35:40.531Z,97968.91
2023-05-25T07:38:08.906Z,97981.06
2023-05-25T07:40:37.250Z,97975.31
2023-05-25T07:43:08.098Z,97984.47
2023-05-25T07:45:36.864Z,97978.41
2023-05-25T07:48:07.288Z,97986.69
2023-05-25T07:50:35.708Z,97993.34
2023-05-25T07:53:05.427Z,97992.47
2023-05-25T07:55:33.891Z,97990.28
2023-05-25T07:58:02.245Z,97989.66
2023-05-25T08:00:31.051Z,97992.19
2023-05-25T08:02:59.578Z,97991.63
2023-05-25T08:05:28.357Z,97986.97
2023-05-25T08:07:56.789Z,97992.81
2023-05-25T08:10:31.568Z,97989.03
2023-05-25T08:13:00.135Z,97982.19
2023-05-25T08:15:28.651Z,97992.03
2023-05-25T08:17:57.334Z,97981.81
2023-05-25T08:20:26.319Z,97911.78
2023-05-25T08:22:54.888Z,97982.81
2023-05-25T08:25:23.470Z,97908.38
2023-05-25T08:27:53.635Z,97982.34
2023-05-25T08:30:22.529Z,97977.78
2023-05-25T08:32:51.575Z,97999.72
2023-05-25T08:35:20.200Z,97973.59
2023-05-25T08:37:48.644Z,97993.03
2023-05-25T08:40:18.060Z,97990.41
2023-05-25T08:42:47.494Z,97988.78
2023-05-25T08:45:33.465Z,97991.22
2023-05-25T08:48:05.771Z,97978.47
2023-05-25T08:50:35.643Z,97997.47
2023-05-25T08:53:06.538Z,97990.72
2023-05-25T08:55:39.154Z,97989.38
2023-05-25T08:58:13.374Z,97988.66
2023-05-25T09:00:50.178Z,97998.59
2023-05-25T09:03:19.094Z,97999.06
2023-05-25T09:05:47.795Z,98000.06
2023-05-25T09:08:17.043Z,97997.38
2023-05-25T09:10:45.818Z,97986.88
2023-05-25T09:13:21.812Z,97997.66
2023-05-25T09:15:53.334Z,97949.59
2023-05-25T09:18:21.794Z,97993.75
2023-05-25T09:20:50.568Z,97984.00
2023-05-25T09:23:19.141Z,97954.91
2023-05-25T09:25:50.895Z,97993.47
2023-05-25T09:30:53.767Z,97982.66
2023-05-25T09:33:22.469Z,97980.25
2023-05-25T09:35:51.970Z,97978.34
2023-05-25T09:38:20.861Z,97987.53
2023-05-25T09:40:49.504Z,97995.00
2023-05-25T09:43:28.903Z,97991.13
2023-05-25T09:46:07.987Z,97966.28
2023-05-25T09:48:37.124Z,97977.66
2023-05-25T09:51:07.879Z,97973.53
2023-05-25T09:53:36.370Z,97988.59
2023-05-25T09:56:04.736Z,97984.53
2023-05-25T09:58:33.189Z,97986.78
2023-05-25T10:01:01.909Z,97991.41
2023-05-25T10:03:31.735Z,97998.78
2023-05-25T10:06:00.188Z,97997.50
2023-05-25T10:08:29.347Z,97997.56
2023-05-25T10:10:57.827Z,97991.69
2023-05-25T10:13:31.557Z,97992.00
2023-05-25T10:16:02.688Z,97984.16
2023-05-25T10:18:37.390Z,97941.53
2023-05-25T10:21:08.839Z,97989.75
2023-05-25T10:23:47.609Z,97991.78
2023-05-25T10:26:21.631Z,97985.25
2023-05-25T10:28:52.523Z,97985.59
2023-05-25T10:31:22.910Z,97977.47
2023-05-25T10:33:53.270Z,97986.44
2023-05-25T10:36:22.150Z,97977.44
2023-05-25T10:38:53.011Z,97980.22
2023-05-25T10:41:22.145Z,97960.28
2023-05-25T10:43:51.602Z,97945.19
2023-05-25T10:46:20.023Z,97976.81
2023-05-25T10:48:50.390Z,97977.25
2023-05-25T10:51:21.958Z,97947.97
2023-05-25T10:54:02.317Z,97963.47
2023-05-25T10:56:30.740Z,97886.59
2023-05-25T10:58:59.220Z,97958.59
2023-05-25T11:01:28.290Z,97952.06
2023-05-25T11:03:58.455Z,97938.59
2023-05-25T11:06:59.736Z,97954.56
2023-05-25T11:09:31.708Z,97959.47
2023-05-25T11:12:04.226Z,97958.41
2023-05-25T11:14:34.015Z,97956.81
2023-05-25T11:17:10.725Z,97956.63
2023-05-25T11:19:44.544Z,97956.44
2023-05-25T11:22:18.018Z,97948.25
2023-05-25T11:24:48.167Z,97913.75
2023-05-25T11:27:16.740Z,97936.41
2023-05-25T11:29:45.035Z,97944.69
2023-05-25T11:32:15.034Z,97942.56
2023-05-25T11:34:46.937Z,97928.13
2023-05-25T11:37:21.473Z,97937.13
2023-05-25T11:39:53.597Z,97944.06
2023-05-25T11:42:23.315Z,97938.81
2023-05-25T11:44:52.142Z,97934.72
2023-05-25T11:47:23.838Z,97924.16
2023-05-25T11:49:52.360Z,97886.88
2023-05-25T11:52:22.355Z,97920.84
2023-05-25T11:54:53.484Z,97907.13
2023-05-25T11:57:25.091Z,97910.41
2023-05-25T11:59:54.953Z,97882.03
2023-05-25T12:02:23.905Z,97869.66
2023-05-25T12:04:56.647Z,97891.34
2023-05-25T12:07:26.502Z,97898.09
2023-05-25T12:10:06.728Z,97883.25
2023-05-25T12:12:44.431Z,97882.53
2023-05-25T12:15:14.365Z,97814.63
2023-05-25T12:17:44.089Z,97878.69
2023-05-25T12:20:15.473Z,97881.25
2023-05-25T12:22:44.930Z,97872.38
2023-05-25T12:25:16.212Z,97873.72
2023-05-25T12:27:44.533Z,97874.66
2023-05-25T12:30:13.101Z,97867.72
2023-05-25T12:32:55.195Z,97842.63
2023-05-25T12:35:23.986Z,97867.19
2023-05-25T12:37:52.591Z,97864.72
2023-05-25T12:40:24.851Z,97852.16
2023-05-25T12:42:59.617Z,97848.50
2023-05-25T12:45:28.271Z,97853.22
2023-05-25T12:47:56.832Z,97854.56
2023-05-25T12:50:25.262Z,97847.59
2023-05-25T12:53:01.692Z,97794.34
2023-05-25T12:55:33.237Z,97817.53
2023-05-25T12:58:03.115Z,97835.16
2023-05-25T13:00:33.826Z,97832.63
2023-05-25T13:03:02.337Z,97831.41
2023-05-25T13:05:33.055Z,97831.34
2023-05-25T13:08:03.210Z,97804.41
2023-05-25T13:10:34.339Z,97820.84
2023-05-25T13:13:02.771Z,97820.50
2023-05-25T13:15:31.211Z,97817.41
2023-05-25T13:17:59.669Z,97809.69
2023-05-25T13:20:29.935Z,97817.34
2023-05-25T13:22:58.563Z,97804.16
2023-05-25T13:25:27.915Z,97803.59
2023-05-25T13:28:00.061Z,97803.91
2023-05-25T13:30:28.797Z,97795.88
2023-05-25T13:32:57.239Z,97797.41
2023-05-25T13:35:42.145Z,97801.19
2023-05-25T13:38:11.260Z,97795.88
2023-05-25T13:40:39.616Z,97786.34
2023-05-25T13:43:09.460Z,97782.88
2023-05-25T13:45:39.844Z,97779.00
2023-05-25T13:48:08.624Z,97748.19
2023-05-25T13:50:37.071Z,97781.75
2023-05-25T13:53:05.658Z,97767.69
2023-05-25T13:55:35.177Z,97768.13
2023-05-25T13:58:03.992Z,97761.38
2023-05-25T14:00:34.104Z,97760.28
2023-05-25T14:03:02.980Z,97764.31
2023-05-25T14:05:31.727Z,97756.78
2023-05-25T14:08:02.790Z,97760.75
2023-05-25T14:10:31.159Z,97760.34
2023-05-25T14:12:59.547Z,97759.53
2023-05-25T14:15:27.898Z,97756.91
2023-05-25T14:17:57.851Z,97744.97
2023-05-25T14:20:26.746Z,97747.19
2023-05-25T14:22:55.426Z,97754.19
2023-05-25T14:25:23.749Z,97758.78
2023-05-25T14:27:52.198Z,97751.44
2023-05-25T14:30:21.223Z,97749.88
2023-05-25T14:32:49.758Z,97718.88
2023-05-25T14:35:19.638Z,97741.94
2023-05-25T14:37:48.098Z,97740.94
2023-05-25T14:40:16.503Z,97691.47
2023-05-25T14:42:44.909Z,97732.72
2023-05-25T14:45:15.889Z,97663.88
2023-05-25T14:47:44.560Z,97708.88
2023-05-25T14:50:13.067Z,97728.75
2023-05-25T14:52:43.247Z,97722.91
2023-05-25T14:55:12.062Z,97717.28
2023-05-25T14:57:40.361Z,97717.34
2023-05-25T15:00:10.079Z,97721.88
2023-05-25T15:02:38.534Z,97703.47
2023-05-25T15:05:07.726Z,97704.63
2023-05-25T15:07:36.080Z,97700.09
2023-05-25T15:10:06.330Z,97708.22
2023-05-25T15:12:34.653Z,97687.50
2023-05-25T15:15:03.081Z,97698.00
2023-05-25T15:17:31.463Z,97697.44
2023-05-25T15:19:59.975Z,97691.88
2023-05-25T15:22:28.970Z,97696.09
2023-05-25T15:24:57.291Z,97687.75
2023-05-25T15:27:27.293Z,97687.28
2023-05-25T15:29:55.631Z,97667.44
2023-05-25T15:32:23.971Z,97673.25
2023-05-25T15:34:52.307Z,97674.75
2023-05-25T15:37:20.640Z,97669.72
2023-05-25T15:39:48.954Z,97671.72
2023-05-25T15:42:17.312Z,97673.28
2023-05-25T15:44:47.229Z,97679.09
2023-05-25T15:47:15.670Z,97673.88
2023-05-25T15:49:44.039Z,97663.53
2023-05-25T15:52:12.356Z,97661.94
2023-05-25T15:54:40.722Z,97661.47
2023-05-25T15:57:09.063Z,97660.06
2023-05-25T15:59:37.413Z,97651.03
2023-05-25T16:02:08.071Z,97650.19
2023-05-25T16:04:36.697Z,97653.19
2023-05-25T16:07:05.213Z,97569.41
2023-05-25T16:09:33.527Z,97649.31
2023-05-25T16:12:02.048Z,97633.38
2023-05-25T16:14:30.605Z,97618.69
2023-05-25T16:16:59.143Z,97637.34
2023-05-25T16:19:29.081Z,97642.38
2023-05-25T16:21:57.471Z,97633.56
2023-05-25T16:24:27.104Z,97632.13
2023-05-25T16:26:55.820Z,97497.91
2023-05-25T16:29:24.172Z,97629.91
2023-05-25T16:31:53.810Z,97636.41
2023-05-25T16:34:22.149Z,97632.09
2023-05-25T16:36:52.002Z,97645.63
2023-05-25T16:39:20.352Z,97645.31
2023-05-25T16:41:50.189Z,97625.16
2023-05-25T16:44:19.233Z,97645.59
2023-05-25T16:46:47.535Z,97642.44
2023-05-25T16:49:15.949Z,97639.50
2023-05-25T16:51:44.447Z,97640.09
2023-05-25T16:54:16.563Z,97605.56
2023-05-25T16:56:45.020Z,97651.84
2023-05-25T16:59:13.379Z,97648.75
2023-05-25T17:01:41.831Z,97649.84
2023-05-25T17:04:10.308Z,97648.81
2023-05-25T17:06:39.251Z,97657.31
2023-05-25T17:09:08.810Z,97640.97
2023-05-25T17:11:38.541Z,97657.25
2023-05-25T17:14:07.068Z,97659.25
2023-05-25T17:16:35.470Z,97667.50
2023-05-25T17:19:03.809Z,97672.09
2023-05-25T17:21:32.325Z,97669.47
2023-05-25T17:24:00.817Z,97674.59
2023-05-25T17:26:29.195Z,97681.81
2023-05-25T17:29:00.931Z,97674.00
2023-05-25T17:31:29.422Z,97683.50
2023-05-25T17:33:57.875Z,97682.28
2023-05-25T17:36:30.896Z,97628.16
2023-05-25T17:38:59.270Z,97683.88
2023-05-25T17:41:27.892Z,97697.50
2023-05-25T17:43:56.274Z,97697.88
2023-05-25T17:46:26.268Z,97681.81
2023-05-25T17:48:54.873Z,97692.06
2023-05-25T17:51:23.180Z,97693.19
2023-05-25T17:53:51.547Z,97693.97
2023-05-25T17:56:19.918Z,97702.78
2023-05-25T17:58:48.531Z,97710.13
2023-05-25T18:01:17.763Z,97686.72
2023-05-25T18:03:48.001Z,97722.03
2023-05-25T18:06:16.572Z,97728.19
2023-05-25T18:08:44.950Z,97735.75
2023-05-25T18:11:13.304Z,97721.78
2023-05-25T18:13:42.012Z,97751.25
2023-05-25T18:16:10.528Z,97733.31
2023-05-25T18:18:38.965Z,97759.22
2023-05-25T18:21:08.894Z,97757.97
2023-05-25T18:23:37.272Z,97760.53
2023-05-25T18:26:06.211Z,97765.59
2023-05-25T18:28:34.627Z,97768.84
2023-05-25T18:31:03.146Z,97767.84
2023-05-25T18:33:31.589Z,97782.22
2023-05-25T18:35:59.972Z,97794.13
2023-05-25T18:38:29.748Z,97795.75
2023-05-25T18:40:58.129Z,97797.91
2023-05-25T18:43:27.071Z,97792.63
2023-05-25T18:45:55.404Z,97808.66
2023-05-25T18:48:24.274Z,97816.25
2023-05-25T18:50:52.841Z,97820.00
2023-05-25T18:53:21.158Z,97822.69
2023-05-25T18:55:51.205Z,97818.97
2023-05-25T18:58:19.615Z,97824.88
2023-05-25T19:00:47.936Z,97820.91
2023-05-25T19:03:16.464Z,97827.97
2023-05-25T19:05:45.216Z,97815.03
2023-05-25T19:08:13.675Z,97834.25
2023-05-25T19:10:42.561Z,97847.16
2023-05-25T19:13:12.387Z,97844.41
2023-05-25T19:15:40.836Z,97840.78
2023-05-25T19:18:09.149Z,97852.53
2023-05-25T19:20:37.660Z,97868.19
2023-05-25T19:23:06.508Z,97867.66
2023-05-25T19:25:34.932Z,97868.97
2023-05-25T19:28:03.383Z,97878.78
2023-05-25T19:30:33.199Z,97872.13
2023-05-25T19:33:01.602Z,97884.97
2023-05-25T19:35:30.087Z,97886.25
2023-05-25T19:37:59.805Z,97889.00
2023-05-25T19:40:29.622Z,97890.38
2023-05-25T19:42:57.966Z,97896.91
2023-05-25T19:45:26.490Z,97897.00
2023-05-25T19:47:56.473Z,97865.38
2023-05-25T19:50:28.221Z,97881.94
2023-05-25T19:52:56.476Z,97899.88
2023-05-25T19:55:25.003Z,97903.19
2023-05-25T19:57:53.562Z,97902.13
2023-05-25T20:00:26.745Z,97912.97
2023-05-25T20:02:57.056Z,97909.13
2023-05-25T20:05:25.549Z,97893.78
2023-05-25T20:07:54.579Z,97910.50
2023-05-25T20:10:23.251Z,97912.44
2023-05-25T20:12:51.575Z,97918.69
2023-05-25T20:15:20.001Z,97917.47
2023-05-25T20:17:48.336Z,97923.31
2023-05-25T20:20:18.341Z,97926.09
2023-05-25T20:22:46.693Z,97922.66
2023-05-25T20:25:15.072Z,97920.50
2023-05-25T20:27:43.438Z,97925.72
2023-05-25T20:30:13.834Z,97927.94
2023-05-25T20:32:44.034Z,97898.97
2023-05-25T20:35:12.466Z,97930.72
2023-05-25T20:37:42.600Z,97933.94
2023-05-25T20:40:11.453Z,97923.06
2023-05-25T20:42:39.727Z,97933.03
2023-05-25T20:45:09.003Z,97940.56
2023-05-25T20:47:37.494Z,97928.50
2023-05-25T20:50:06.159Z,97939.72
2023-05-25T20:52:34.902Z,97940.22
2023-05-25T20:55:05.029Z,97929.59
2023-05-25T20:57:33.414Z,97941.75
2023-05-25T21:00:01.891Z,97939.97
2023-05-25T21:02:30.284Z,97942.91
2023-05-25T21:04:58.622Z,97924.31
2023-05-25T21:07:27.006Z,97938.16
2023-05-25T21:09:56.692Z,97933.22
2023-05-25T21:12:26.553Z,97937.47
2023-05-25T21:14:55.142Z,97938.31
2023-05-25T21:17:23.545Z,97935.66
2023-05-25T21:19:52.095Z,97939.91
2023-05-25T21:22:20.458Z,97937.00
2023-05-25T21:24:48.757Z,97908.19
2023-05-25T21:27:17.111Z,97937.47
2023-05-25T21:29:46.925Z,97944.50
2023-05-25T21:32:15.331Z,97952.94
2023-05-25T21:34:43.734Z,97931.91
2023-05-25T21:37:12.103Z,97949.31
2023-05-25T21:39:40.411Z,97960.63
2023-05-25T21:42:08.879Z,97961.38
2023-05-25T21:44:37.152Z,97959.50
2023-05-25T21:47:07.276Z,97959.50
2023-05-25T21:49:35.903Z,97959.59
2023-05-25T21:52:04.254Z,97940.56
2023-05-25T21:54:32.557Z,97957.41
2023-05-25T21:57:02.218Z,97952.34
2023-05-25T21:59:30.992Z,97962.22
2023-05-25T22:01:59.613Z,97963.84
2023-05-25T22:04:29.567Z,97958.72
2023-05-25T22:06:57.982Z,97968.59
2023-05-25T22:09:26.332Z,97969.56
2023-05-25T22:11:54.958Z,97970.91
2023-05-25T22:14:24.255Z,97965.09
2023-05-25T22:16:52.874Z,97965.00
2023-05-25T22:19:21.223Z,97969.16
2023-05-25T22:21:51.087Z,97963.34
2023-05-25T22:24:19.400Z,97958.13
2023-05-25T22:26:47.926Z,97944.78
2023-05-25T22:29:16.585Z,97957.28
2023-05-25T22:31:45.068Z,97960.47
2023-05-25T22:34:13.512Z,97956.00
2023-05-25T22:36:41.911Z,97953.88
2023-05-25T22:39:11.769Z,97941.22
2023-05-25T22:41:40.073Z,97946.09
2023-05-25T22:44:08.417Z,97941.53
2023-05-25T22:46:36.820Z,97947.84
2023-05-25T22:49:05.208Z,97943.59
2023-05-25T22:51:33.580Z,97941.38
2023-05-25T22:54:01.974Z,97958.31
2023-05-25T22:56:31.748Z,97956.63
2023-05-25T22:59:00.083Z,97946.84
2023-05-25T23:01:28.537Z,97949.59
2023-05-25T23:03:57.029Z,97931.75
2023-05-25T23:06:25.464Z,97948.06
2023-05-25T23:08:54.238Z,97942.56
2023-05-25T23:11:22.545Z,97949.84
2023-05-25T23:13:54.835Z,97942.06
2023-05-25T23:16:23.880Z,97942.56
2023-05-25T23:18:52.152Z,97945.13
2023-05-25T23:21:20.607Z,97931.81
2023-05-25T23:23:49.188Z,97941.69
2023-05-25T23:26:17.549Z,97938.94
2023-05-25T23:28:46.001Z,97951.69
2023-05-25T23:31:15.863Z,97934.63
2023-05-25T23:33:44.153Z,97943.72
2023-05-25T23:36:12.858Z,97928.47
2023-05-25T23:38:41.251Z,97945.34
2023-05-25T23:41:09.645Z,97922.97
2023-05-25T23:43:38.078Z,97933.69
2023-05-25T23:46:06.438Z,97934.63
2023-05-25T23:48:36.215Z,97938.28
2023-05-25T23:51:07.606Z,97939.94
2023-05-25T23:53:36.086Z,97945.88
2023-05-25T23:56:04.630Z,97940.63
2023-05-25T23:58:33.091Z,97912.28
